createdAt,value
2019-04-20T00:00:09.437Z,98504.17
2019-04-20T00:01:24.545Z,98498.74
2019-04-20T00:02:13.850Z,98506.61
2019-04-20T00:02:59.769Z,98507.42
2019-04-20T00:03:50.109Z,98510.10
2019-04-20T00:04:39.302Z,98506.56
2019-04-20T00:05:30.857Z,98507.92
2019-04-20T00:06:21.531Z,98516.60
2019-04-20T00:07:12.242Z,98509.81
2019-04-20T00:08:09.133Z,98503.02
2019-04-20T00:09:03.515Z,98501.91
2019-04-20T00:09:50.245Z,98507.05
2019-04-20T00:10:45.219Z,98506.23
2019-04-20T00:11:36.525Z,98500.25
2019-04-20T00:12:33.253Z,98509.22
2019-04-20T00:13:23.005Z,98504.05
2019-04-20T00:14:08.290Z,98502.40
2019-04-20T00:14:52.252Z,98502.40
2019-04-20T00:15:44.988Z,98502.65
2019-04-20T00:16:35.685Z,98507.29
2019-04-20T00:17:26.625Z,98505.36
2019-04-20T00:18:17.076Z,98505.36
2019-04-20T00:19:09.417Z,98500.17
2019-04-20T00:20:04.668Z,98505.61
2019-04-20T00:21:00.319Z,98498.27
2019-04-20T00:22:02.037Z,98504.77
2019-04-20T00:22:59.861Z,98501.77
2019-04-20T00:23:54.786Z,98503.41
2019-04-20T00:25:10.063Z,98496.88
2019-04-20T00:27:09.227Z,98503.38
2019-04-20T00:27:50.497Z,98497.11
2019-04-20T00:28:40.023Z,98496.25
2019-04-20T00:29:29.426Z,98490.56
2019-04-20T00:30:26.448Z,98497.89
2019-04-20T00:31:13.854Z,98498.38
2019-04-20T00:32:01.639Z,98491.05
2019-04-20T00:32:53.340Z,98492.41
2019-04-20T00:33:45.837Z,98500.27
2019-04-20T00:34:25.588Z,98493.19
2019-04-20T00:35:12.425Z,98488.05
2019-04-20T00:36:03.278Z,98491.29
2019-04-20T00:36:54.118Z,98484.22
2019-04-20T00:37:46.694Z,98486.93
2019-04-20T00:38:42.648Z,98492.65
2019-04-20T00:39:29.851Z,98491.00
2019-04-20T00:40:21.270Z,98486.64
2019-04-20T00:41:13.689Z,98483.64
2019-04-20T00:42:06.125Z,98487.71
2019-04-20T00:42:55.157Z,98486.89
2019-04-20T00:43:44.220Z,98486.10
2019-04-20T00:44:39.571Z,98480.92
2019-04-20T00:45:31.500Z,98478.49
2019-04-20T00:46:26.430Z,98486.10
2019-04-20T00:47:20.076Z,98486.10
2019-04-20T00:48:05.692Z,98487.45
2019-04-20T00:48:55.939Z,98479.56
2019-04-20T00:49:53.624Z,98480.92
2019-04-20T00:50:44.501Z,98479.27
2019-04-20T00:51:39.119Z,98486.30
2019-04-20T00:52:30.735Z,98486.30
2019-04-20T00:53:19.861Z,98484.16
2019-04-20T00:53:59.256Z,98479.52
2019-04-20T00:54:49.427Z,98486.83
2019-04-20T00:55:42.222Z,98485.19
2019-04-20T00:56:33.009Z,98482.47
2019-04-20T00:57:34.620Z,98480.30
2019-04-20T00:58:23.632Z,98477.86
2019-04-20T00:59:20.486Z,98481.92
2019-04-20T01:00:19.810Z,98484.60
2019-04-20T01:01:16.489Z,98486.78
2019-04-20T01:01:59.845Z,98485.14
2019-04-20T01:02:43.526Z,98483.52
2019-04-20T01:03:41.273Z,98488.66
2019-04-20T01:04:30.084Z,98489.44
2019-04-20T01:05:18.071Z,98479.13
2019-04-20T01:06:22.215Z,98485.88
2019-04-20T01:07:20.278Z,98489.96
2019-04-20T01:08:33.967Z,98488.31
2019-04-20T01:09:27.349Z,98488.02
2019-04-20T01:10:19.391Z,98484.73
2019-04-20T01:11:10.753Z,98481.72
2019-04-20T01:12:11.736Z,98488.50
2019-04-20T01:13:03.405Z,98489.84
2019-04-20T01:13:49.399Z,98488.44
2019-04-20T01:14:46.240Z,98485.18
2019-04-20T01:15:36.395Z,98481.89
2019-04-20T01:16:25.521Z,98484.31
2019-04-20T01:17:12.152Z,98486.77
2019-04-20T01:18:01.358Z,98487.55
2019-04-20T01:18:52.264Z,98479.93
2019-04-20T01:19:42.415Z,98480.71
2019-04-20T01:20:33.241Z,98485.84
2019-04-20T01:21:27.143Z,98481.23
2019-04-20T01:22:18.479Z,98480.41
2019-04-20T01:23:10.014Z,98483.11
2019-04-20T01:24:01.533Z,98484.70
2019-04-20T01:24:48.716Z,98481.17
2019-04-20T01:25:42.453Z,98488.19
2019-04-20T01:26:29.420Z,98480.59
2019-04-20T01:27:34.556Z,98476.27
2019-04-20T01:28:27.840Z,98481.16
2019-04-20T01:29:12.164Z,98475.98
2019-04-20T01:30:03.366Z,98477.33
2019-04-20T01:30:58.544Z,98472.97
2019-04-20T01:31:45.200Z,98479.75
2019-04-20T01:32:36.028Z,98474.33
2019-04-20T01:33:31.868Z,98482.47
2019-04-20T01:34:26.690Z,98480.52
2019-04-20T01:35:21.486Z,98474.52
2019-04-20T01:36:03.250Z,98479.94
2019-04-20T01:36:55.614Z,98476.92
2019-04-20T01:37:52.238Z,98482.64
2019-04-20T01:38:39.901Z,98474.79
2019-04-20T01:39:23.958Z,98480.20
2019-04-20T01:40:07.766Z,98485.34
2019-04-20T01:40:57.141Z,98489.12
2019-04-20T01:41:47.567Z,98479.63
2019-04-20T01:42:38.079Z,98476.63
2019-04-20T01:43:29.115Z,98479.08
2019-04-20T01:44:27.006Z,98475.84
2019-04-20T01:45:14.629Z,98479.61
2019-04-20T01:46:11.274Z,98476.08
2019-04-20T01:46:58.730Z,98477.67
2019-04-20T01:47:50.541Z,98478.74
2019-04-20T01:48:38.649Z,98473.59
2019-04-20T01:49:32.394Z,98474.66
2019-04-20T01:50:24.712Z,98479.55
2019-04-20T01:51:17.308Z,98474.37
2019-04-20T01:52:10.975Z,98479.50
2019-04-20T01:53:09.009Z,98470.58
2019-04-20T01:54:06.523Z,98488.44
2019-04-20T01:54:59.160Z,98482.44
2019-04-20T01:56:01.590Z,98483.79
2019-04-20T01:56:36.149Z,98478.64
2019-04-20T01:57:32.224Z,98471.05
2019-04-20T01:58:36.396Z,98486.48
2019-04-20T01:59:37.075Z,98471.27
2019-04-20T02:00:49.635Z,98485.35
2019-04-20T02:02:09.896Z,98482.88
2019-04-20T02:03:15.030Z,98474.73
2019-04-20T02:04:22.456Z,98476.86
2019-04-20T02:05:20.761Z,98484.44
2019-04-20T02:06:08.263Z,98487.10
2019-04-20T02:06:59.567Z,98484.39
2019-04-20T02:07:48.662Z,98480.56
2019-04-20T02:08:37.728Z,98479.48
2019-04-20T02:09:31.150Z,98479.20
2019-04-20T02:10:21.780Z,98480.55
2019-04-20T02:11:18.651Z,98478.37
2019-04-20T02:12:10.395Z,98484.85
2019-04-20T02:12:57.560Z,98478.08
2019-04-20T02:13:51.260Z,98475.90
2019-04-20T02:14:41.210Z,98470.44
2019-04-20T02:15:33.220Z,98477.53
2019-04-20T02:16:27.588Z,98479.66
2019-04-20T02:17:16.774Z,98477.77
2019-04-20T02:18:07.711Z,98474.50
2019-04-20T02:19:06.566Z,98472.06
2019-04-20T02:20:00.978Z,98481.01
2019-04-20T02:20:50.272Z,98475.86
2019-04-20T02:21:37.872Z,98472.06
2019-04-20T02:22:30.308Z,98472.06
2019-04-20T02:23:16.074Z,98479.10
2019-04-20T02:23:57.992Z,98469.62
2019-04-20T02:24:44.888Z,98474.75
2019-04-20T02:25:35.851Z,98467.69
2019-04-20T02:26:28.160Z,98475.52
2019-04-20T02:27:20.629Z,98473.62
2019-04-20T02:28:29.774Z,98474.14
2019-04-20T02:29:24.688Z,98466.55
2019-04-20T02:30:21.661Z,98471.67
2019-04-20T02:31:23.021Z,98464.91
2019-04-20T02:33:14.634Z,98465.17
2019-04-20T02:33:59.237Z,98468.41
2019-04-20T02:34:59.359Z,98473.01
2019-04-20T02:36:20.867Z,98474.66
2019-04-20T02:37:13.892Z,98468.36
2019-04-20T02:38:10.552Z,98463.48
2019-04-20T02:39:31.038Z,98469.16
2019-04-20T02:40:00.860Z,98477.29
2019-04-20T02:40:52.574Z,98473.23
2019-04-20T02:41:44.872Z,98468.58
2019-04-20T02:42:38.664Z,98474.53
2019-04-20T02:43:30.475Z,98465.03
2019-04-20T02:44:23.566Z,98460.67
2019-04-20T02:47:47.783Z,98469.86
2019-04-20T02:48:35.670Z,98467.39
2019-04-20T02:49:36.280Z,98466.03
2019-04-20T02:50:19.134Z,98464.13
2019-04-20T02:51:06.605Z,98458.12
2019-04-20T02:52:56.886Z,98458.05
2019-04-20T02:53:51.182Z,98465.17
2019-04-20T02:54:26.683Z,98457.05
2019-04-20T02:55:22.839Z,98459.17
2019-04-20T02:56:26.557Z,98465.94
2019-04-20T02:58:00.729Z,98465.64
2019-04-20T02:58:50.289Z,98468.89
2019-04-20T03:00:25.122Z,98462.91
2019-04-20T03:01:30.925Z,98460.73
2019-04-20T03:02:23.786Z,98462.63
2019-04-20T03:03:07.818Z,98446.57
2019-04-20T03:03:51.119Z,98462.60
2019-04-20T03:04:47.163Z,98460.66
2019-04-20T03:05:41.398Z,98452.25
2019-04-20T03:06:33.041Z,98458.48
2019-04-20T03:07:28.148Z,98459.30
2019-04-20T03:08:22.108Z,98464.19
2019-04-20T03:09:17.452Z,98459.30
2019-04-20T03:10:03.936Z,98463.38
2019-04-20T03:11:05.816Z,98457.40
2019-04-20T03:11:53.001Z,98464.17
2019-04-20T03:12:38.843Z,98464.17
2019-04-20T03:13:25.370Z,98461.99
2019-04-20T03:14:15.684Z,98454.11
2019-04-20T03:15:01.620Z,98460.05
2019-04-20T03:16:01.790Z,98463.29
2019-04-20T03:16:51.751Z,98463.88
2019-04-20T03:17:46.025Z,98463.58
2019-04-20T03:18:34.015Z,98463.05
2019-04-20T03:19:17.353Z,98460.59
2019-04-20T03:20:18.819Z,98463.00
2019-04-20T03:21:08.136Z,98462.23
2019-04-20T03:21:59.776Z,98464.09
2019-04-20T03:23:15.921Z,98469.21
2019-04-20T03:23:44.183Z,98464.30
2019-04-20T03:24:35.696Z,98464.83
2019-04-20T03:25:46.688Z,98455.01
2019-04-20T03:26:36.555Z,98461.22
2019-04-20T03:27:33.777Z,98466.88
2019-04-20T03:28:42.980Z,98468.50
2019-04-20T03:29:52.344Z,98465.20
2019-04-20T03:31:29.483Z,98466.53
2019-04-20T03:32:30.634Z,98465.12
2019-04-20T03:33:11.765Z,98459.91
2019-04-20T03:34:00.742Z,98471.27
2019-04-20T03:35:28.339Z,98464.18
2019-04-20T03:36:25.190Z,98466.59
2019-04-20T03:37:17.084Z,98462.77
2019-04-20T03:38:00.044Z,98454.92
2019-04-20T03:38:48.447Z,98460.86
2019-04-20T03:39:37.609Z,98460.04
2019-04-20T03:40:24.326Z,98466.21
2019-04-20T03:41:14.865Z,98468.13
2019-04-20T03:41:56.674Z,98461.06
2019-04-20T03:42:44.730Z,98458.05
2019-04-20T03:43:34.915Z,98459.66
2019-04-20T03:44:27.785Z,98459.39
2019-04-20T03:45:21.038Z,98461.28
2019-04-20T03:46:12.570Z,98463.16
2019-04-20T03:47:04.562Z,98456.92
2019-04-20T03:48:05.400Z,98462.04
2019-04-20T03:48:54.658Z,98459.86
2019-04-20T03:49:55.052Z,98463.63
2019-04-20T03:50:46.366Z,98462.84
2019-04-20T03:51:33.310Z,98461.48
2019-04-20T03:52:24.630Z,98454.43
2019-04-20T03:53:23.051Z,98464.42
2019-04-20T03:54:22.222Z,98463.07
2019-04-20T03:55:18.748Z,98462.78
2019-04-20T03:56:28.051Z,98460.08
2019-04-20T03:57:34.351Z,98463.30
2019-04-20T03:58:42.360Z,98468.42
2019-04-20T03:59:44.626Z,98465.69
2019-04-20T04:00:50.812Z,98456.98
2019-04-20T04:03:20.226Z,98464.86
2019-04-20T04:04:17.487Z,98472.69
2019-04-20T04:05:08.859Z,98470.24
2019-04-20T04:06:06.429Z,98467.54
2019-04-20T04:06:51.681Z,98471.59
2019-04-20T04:07:43.183Z,98467.25
2019-04-20T04:08:36.385Z,98465.59
2019-04-20T04:09:30.521Z,98464.54
2019-04-20T04:10:25.861Z,98474.53
2019-04-20T04:11:19.969Z,98471.83
2019-04-20T04:12:05.728Z,98469.13
2019-04-20T04:13:09.712Z,98474.00
2019-04-20T04:14:01.210Z,98478.06
2019-04-20T04:14:53.693Z,98466.42
2019-04-20T04:15:50.290Z,98471.83
2019-04-20T04:16:42.203Z,98465.89
2019-04-20T04:17:30.296Z,98466.95
2019-04-20T04:18:23.311Z,98469.36
2019-04-20T04:19:16.185Z,98469.36
2019-04-20T04:20:03.514Z,98479.65
2019-04-20T04:20:55.505Z,98476.65
2019-04-20T04:21:53.741Z,98473.12
2019-04-20T04:22:44.079Z,98474.20
2019-04-20T04:23:38.065Z,98475.27
2019-04-20T04:24:22.620Z,98464.74
2019-04-20T04:25:14.820Z,98469.86
2019-04-20T04:26:08.528Z,98475.27
2019-04-20T04:26:54.829Z,98473.91
2019-04-20T04:27:56.096Z,98469.86
2019-04-20T04:28:40.889Z,98478.00
2019-04-20T04:29:38.255Z,98466.86
2019-04-20T04:30:21.885Z,98476.33
2019-04-20T04:31:15.730Z,98479.85
2019-04-20T04:32:25.545Z,98473.91
2019-04-20T04:33:20.198Z,98477.67
2019-04-20T04:33:55.542Z,98466.33
2019-04-20T04:34:46.883Z,98477.14
2019-04-20T04:35:27.147Z,98482.55
2019-04-20T04:36:22.197Z,98474.44
2019-04-20T04:37:17.608Z,98481.20
2019-04-20T04:38:09.427Z,98479.85
2019-04-20T04:39:02.561Z,98479.03
2019-04-20T04:39:49.055Z,98473.62
2019-04-20T04:40:51.488Z,98485.79
2019-04-20T04:41:37.967Z,98483.91
2019-04-20T04:42:30.412Z,98470.39
2019-04-20T04:43:19.783Z,98484.73
2019-04-20T04:44:09.645Z,98484.44
2019-04-20T04:44:50.577Z,98486.08
2019-04-20T04:45:33.970Z,98482.85
2019-04-20T04:46:24.846Z,98477.44
2019-04-20T04:47:15.299Z,98471.50
2019-04-20T04:48:06.695Z,98482.05
2019-04-20T04:49:08.766Z,98482.05
2019-04-20T04:49:59.977Z,98489.94
2019-04-20T04:50:47.504Z,98488.29
2019-04-20T04:51:42.701Z,98482.88
2019-04-20T04:52:34.201Z,98485.88
2019-04-20T04:53:34.794Z,98489.94
2019-04-20T04:54:16.763Z,98488.88
2019-04-20T04:55:12.120Z,98484.30
2019-04-20T04:55:56.457Z,98488.62
2019-04-20T04:56:39.677Z,98492.14
2019-04-20T04:57:30.501Z,98489.73
2019-04-20T04:58:21.588Z,98481.09
2019-04-20T04:59:13.280Z,98489.80
2019-04-20T05:00:05.691Z,98491.70
2019-04-20T05:01:05.544Z,98488.47
2019-04-20T05:01:54.786Z,98489.30
2019-04-20T05:02:48.893Z,98490.95
2019-04-20T05:03:54.033Z,98485.27
2019-04-20T05:05:06.957Z,98492.33
2019-04-20T05:06:14.767Z,98491.27
2019-04-20T05:06:59.506Z,98493.21
2019-04-20T05:07:51.801Z,98492.95
2019-04-20T05:08:41.145Z,98489.71
2019-04-20T05:09:25.493Z,98495.42
2019-04-20T05:10:16.063Z,98496.54
2019-04-20T05:11:08.885Z,98494.92
2019-04-20T05:12:05.489Z,98492.51
2019-04-20T05:12:48.268Z,98493.09
2019-04-20T05:13:49.035Z,98490.66
2019-04-20T05:14:40.575Z,98489.36
2019-04-20T05:15:37.376Z,98493.16
2019-04-20T05:16:35.963Z,98488.86
2019-04-20T05:17:20.697Z,98490.80
2019-04-20T05:18:11.922Z,98484.06
2019-04-20T05:19:13.248Z,98487.36
2019-04-20T05:19:57.486Z,98489.56
2019-04-20T05:20:54.661Z,98488.50
2019-04-20T05:22:01.297Z,98485.00
2019-04-20T05:22:58.199Z,98486.94
2019-04-20T05:24:07.588Z,98491.84
2019-04-20T05:25:07.102Z,98481.08
2019-04-20T05:26:30.796Z,98483.80
2019-04-20T05:27:39.162Z,98488.19
2019-04-20T05:28:25.336Z,98489.06
2019-04-20T05:29:10.762Z,98480.97
2019-04-20T05:29:53.306Z,98487.23
2019-04-20T05:30:48.600Z,98485.11
2019-04-20T05:31:46.231Z,98492.72
2019-04-20T05:32:35.850Z,98478.41
2019-04-20T05:33:27.765Z,98481.97
2019-04-20T05:34:30.518Z,98479.58
2019-04-20T05:35:23.274Z,98484.28
2019-04-20T05:36:14.719Z,98479.70
2019-04-20T05:36:57.522Z,98485.44
2019-04-20T05:38:02.723Z,98484.39
2019-04-20T05:38:48.149Z,98477.14
2019-04-20T05:39:38.221Z,98487.77
2019-04-20T05:40:29.178Z,98487.02
2019-04-20T05:41:16.982Z,98482.44
2019-04-20T05:42:12.790Z,98484.39
2019-04-20T05:43:06.478Z,98492.30
2019-04-20T05:44:12.805Z,98488.02
2019-04-20T05:45:07.564Z,98486.44
2019-04-20T05:45:50.196Z,98484.61
2019-04-20T05:46:56.598Z,98482.77
2019-04-20T05:47:40.177Z,98483.38
2019-04-20T05:48:36.247Z,98483.14
2019-04-20T05:49:25.882Z,98481.86
2019-04-20T05:50:08.339Z,98479.45
2019-04-20T05:51:01.973Z,98477.04
2019-04-20T05:51:54.310Z,98481.70
2019-04-20T05:53:41.252Z,98479.64
2019-04-20T05:54:36.475Z,98484.83
2019-04-20T05:55:21.016Z,98480.83
2019-04-20T05:56:10.842Z,98486.02
2019-04-20T05:57:07.817Z,98480.65
2019-04-20T05:57:56.753Z,98486.13
2019-04-20T05:58:45.057Z,98478.04
2019-04-20T05:59:47.019Z,98479.45
2019-04-20T06:00:34.560Z,98478.14
2019-04-20T06:01:20.224Z,98481.16
2019-04-20T06:02:14.049Z,98483.39
2019-04-20T06:03:00.491Z,98481.80
2019-04-20T06:03:55.634Z,98478.59
2019-04-20T06:04:59.655Z,98481.89
2019-04-20T06:05:46.011Z,98478.16
2019-04-20T06:06:33.142Z,98484.16
2019-04-20T06:07:26.868Z,98475.23
2019-04-20T06:08:20.416Z,98485.04
2019-04-20T06:09:12.037Z,98482.90
2019-04-20T06:10:00.597Z,98479.94
2019-04-20T06:11:12.382Z,98487.88
2019-04-20T06:12:07.615Z,98477.30
2019-04-20T06:12:51.934Z,98480.62
2019-04-20T06:13:53.491Z,98482.55
2019-04-20T06:15:05.568Z,98481.23
2019-04-20T06:16:07.832Z,98478.27
2019-04-20T06:17:11.145Z,98489.73
2019-04-20T06:18:06.586Z,98488.12
2019-04-20T06:19:17.547Z,98484.62
2019-04-20T06:20:02.380Z,98481.39
2019-04-20T06:20:50.394Z,98478.70
2019-04-20T06:21:57.688Z,98484.45
2019-04-20T06:22:52.698Z,98480.93
2019-04-20T06:23:53.195Z,98478.77
2019-04-20T06:24:49.447Z,98473.36
2019-04-20T06:25:58.612Z,98480.46
2019-04-20T06:26:51.945Z,98478.02
2019-04-20T06:27:34.176Z,98479.42
2019-04-20T06:28:19.703Z,98478.62
2019-04-20T06:29:09.702Z,98479.45
2019-04-20T06:30:04.273Z,98478.65
2019-04-20T06:30:49.434Z,98484.11
2019-04-20T06:31:48.987Z,98483.59
2019-04-20T06:33:50.259Z,98486.60
2019-04-20T06:34:35.517Z,98482.24
2019-04-20T06:35:18.929Z,98488.53
2019-04-20T06:36:13.417Z,98476.55
2019-04-20T06:37:56.495Z,98473.02
2019-04-20T06:39:48.749Z,98474.93
2019-04-20T06:40:37.304Z,98468.13
2019-04-20T06:41:21.529Z,98473.85
2019-04-20T06:42:13.982Z,98480.66
2019-04-20T06:42:59.718Z,98470.31
2019-04-20T06:43:54.311Z,98478.73
2019-04-20T06:44:59.706Z,98467.30
2019-04-20T06:45:35.029Z,98473.82
2019-04-20T06:46:22.501Z,98472.45
2019-04-20T06:47:15.505Z,98473.81
2019-04-20T06:48:20.402Z,98473.27
2019-04-20T06:49:05.596Z,98471.89
2019-04-20T06:49:45.302Z,98474.86
2019-04-20T06:50:38.501Z,98471.30
2019-04-20T06:51:36.108Z,98474.56
2019-04-20T06:52:40.887Z,98471.28
2019-04-20T06:53:47.475Z,98463.91
2019-04-20T06:54:42.214Z,98464.95
2019-04-20T06:55:38.621Z,98467.13
2019-04-20T06:56:29.565Z,98471.48
2019-04-20T06:57:18.366Z,98467.91
2019-04-20T06:58:20.525Z,98476.60
2019-04-20T06:59:08.412Z,98470.06
2019-04-20T06:59:47.699Z,98470.56
2019-04-20T07:00:44.496Z,98467.81
2019-04-20T07:01:36.976Z,98473.77
2019-04-20T07:02:29.890Z,98464.73
2019-04-20T07:03:18.437Z,98472.90
2019-04-20T07:04:21.194Z,98465.77
2019-04-20T07:04:55.958Z,98470.66
2019-04-20T07:05:47.716Z,98468.72
2019-04-20T07:07:00.524Z,98464.32
2019-04-20T07:07:33.912Z,98468.66
2019-04-20T07:08:33.388Z,98474.37
2019-04-20T07:09:15.325Z,98466.14
2019-04-20T07:10:57.856Z,98463.62
2019-04-20T07:11:46.743Z,98475.88
2019-04-20T07:12:36.889Z,98467.64
2019-04-20T07:13:24.064Z,98471.40
2019-04-20T07:14:08.539Z,98471.91
2019-04-20T07:15:09.719Z,98466.95
2019-04-20T07:16:13.771Z,98475.93
2019-04-20T07:17:43.825Z,98472.33
2019-04-20T07:18:15.716Z,98470.38
2019-04-20T07:19:24.008Z,98465.96
2019-04-20T07:20:19.475Z,98459.90
2019-04-20T07:21:35.420Z,98468.87
2019-04-20T07:22:36.072Z,98467.43
2019-04-20T07:23:18.191Z,98462.22
2019-04-20T07:24:05.062Z,98465.45
2019-04-20T07:24:59.291Z,98457.20
2019-04-20T07:25:52.750Z,98461.80
2019-04-20T07:26:41.667Z,98463.09
2019-04-20T07:27:33.642Z,98461.67
2019-04-20T07:28:22.921Z,98460.80
2019-04-20T07:29:15.744Z,98462.11
2019-04-20T07:30:03.805Z,98460.95
2019-04-20T07:30:50.271Z,98458.16
2019-04-20T07:31:41.359Z,98454.55
2019-04-20T07:32:44.350Z,98456.13
2019-04-20T07:33:30.342Z,98459.35
2019-04-20T07:34:23.012Z,98455.15
2019-04-20T07:35:09.850Z,98451.53
2019-04-20T07:36:04.105Z,98460.81
2019-04-20T07:37:19.348Z,98452.77
2019-04-20T07:38:10.419Z,98454.08
2019-04-20T07:38:40.233Z,98450.73
2019-04-20T07:39:32.783Z,98446.83
2019-04-20T07:40:23.219Z,98448.13
2019-04-20T07:41:08.730Z,98450.83
2019-04-20T07:42:12.022Z,98448.57
2019-04-20T07:43:52.981Z,98447.61
2019-04-20T07:44:41.412Z,98440.13
2019-04-20T07:45:29.566Z,98444.16
2019-04-20T07:46:37.625Z,98447.61
2019-04-20T07:47:13.778Z,98442.61
2019-04-20T07:48:09.319Z,98446.09
2019-04-20T07:48:59.900Z,98442.16
2019-04-20T07:49:44.367Z,98443.74
2019-04-20T07:50:32.107Z,98441.18
2019-04-20T07:51:16.144Z,98438.36
2019-04-20T07:51:58.005Z,98433.89
2019-04-20T07:53:04.427Z,98431.06
2019-04-20T07:54:10.644Z,98433.40
2019-04-20T07:55:12.138Z,98431.03
2019-04-20T07:55:52.380Z,98432.88
2019-04-20T07:56:39.830Z,98423.01
2019-04-20T07:57:25.305Z,98429.95
2019-04-20T07:58:10.925Z,98431.78
2019-04-20T07:58:55.306Z,98428.94
2019-04-20T08:00:03.327Z,98429.89
2019-04-20T08:02:12.001Z,98433.78
2019-04-20T08:03:12.754Z,98429.53
2019-04-20T08:04:06.640Z,98429.95
2019-04-20T08:04:55.046Z,98425.67
2019-04-20T08:05:53.804Z,98425.83
2019-04-20T08:06:43.387Z,98422.68
2019-04-20T08:07:39.186Z,98417.59
2019-04-20T08:08:32.727Z,98424.63
2019-04-20T08:09:22.234Z,98423.92
2019-04-20T08:10:09.128Z,98424.33
2019-04-20T08:11:12.675Z,98420.02
2019-04-20T08:12:11.304Z,98419.61
2019-04-20T08:13:09.546Z,98420.80
2019-04-20T08:13:51.399Z,98420.38
2019-04-20T08:14:50.144Z,98410.05
2019-04-20T08:15:46.150Z,98418.70
2019-04-20T08:16:38.252Z,98413.82
2019-04-20T08:17:41.898Z,98419.45
2019-04-20T08:18:12.088Z,98419.81
2019-04-20T08:19:00.936Z,98410.58
2019-04-20T08:19:46.350Z,98410.67
2019-04-20T08:20:43.839Z,98413.55
2019-04-20T08:21:35.089Z,98412.05
2019-04-20T08:22:26.602Z,98409.17
2019-04-20T08:23:17.144Z,98411.23
2019-04-20T08:24:02.466Z,98410.50
2019-04-20T08:24:52.418Z,98402.95
2019-04-20T08:25:39.642Z,98410.52
2019-04-20T08:26:26.115Z,98407.33
2019-04-20T08:27:13.177Z,98408.79
2019-04-20T08:28:35.866Z,98403.70
2019-04-20T08:29:41.740Z,98406.88
2019-04-20T08:30:33.958Z,98403.28
2019-04-20T08:31:55.915Z,98406.45
2019-04-20T08:33:13.143Z,98404.38
2019-04-20T08:34:28.258Z,98403.89
2019-04-20T08:35:07.110Z,98403.69
2019-04-20T08:35:53.952Z,98399.63
2019-04-20T08:36:47.809Z,98401.98
2019-04-20T08:37:32.948Z,98396.31
2019-04-20T08:40:12.056Z,98399.19
2019-04-20T08:41:00.303Z,98402.60
2019-04-20T08:41:57.070Z,98391.73
2019-04-20T08:42:57.262Z,98397.59
2019-04-20T08:43:47.037Z,98394.08
2019-04-20T08:45:16.363Z,98397.05
2019-04-20T08:46:05.507Z,98388.61
2019-04-20T08:47:24.204Z,98390.61
2019-04-20T08:47:57.138Z,98390.70
2019-04-20T08:48:43.500Z,98398.25
2019-04-20T08:49:35.449Z,98392.56
2019-04-20T08:50:22.384Z,98377.22
2019-04-20T08:51:16.532Z,98383.95
2019-04-20T08:52:52.067Z,98383.43
2019-04-20T08:53:12.762Z,98377.98
2019-04-20T08:53:47.107Z,98378.06
2019-04-20T08:54:34.348Z,98380.63
2019-04-20T08:55:29.478Z,98379.06
2019-04-20T08:56:14.544Z,98375.56
2019-04-20T08:56:57.143Z,98368.72
2019-04-20T08:57:46.795Z,98378.67
2019-04-20T08:58:37.110Z,98379.88
2019-04-20T08:59:28.928Z,98371.97
2019-04-20T09:00:27.500Z,98368.46
2019-04-20T09:01:20.215Z,98371.50
2019-04-20T09:02:08.395Z,98371.31
2019-04-20T09:03:00.901Z,98371.16
2019-04-20T09:03:56.533Z,98371.78
2019-04-20T09:04:46.084Z,98364.94
2019-04-20T09:05:41.352Z,98372.92
2019-04-20T09:06:32.320Z,98362.14
2019-04-20T09:07:18.115Z,98367.39
2019-04-20T09:08:11.366Z,98364.31
2019-04-20T09:09:11.695Z,98366.45
2019-04-20T09:10:14.359Z,98367.76
2019-04-20T09:10:54.137Z,98361.70
2019-04-20T09:11:49.549Z,98365.77
2019-04-20T09:12:35.422Z,98357.16
2019-04-20T09:13:22.289Z,98354.91
2019-04-20T09:14:18.752Z,98357.11
2019-04-20T09:15:12.435Z,98357.98
2019-04-20T09:16:02.183Z,98349.34
2019-04-20T09:17:02.818Z,98359.88
2019-04-20T09:18:00.597Z,98359.64
2019-04-20T09:18:56.685Z,98358.52
2019-04-20T09:19:46.808Z,98361.31
2019-04-20T09:20:36.557Z,98354.14
2019-04-20T09:21:30.889Z,98358.56
2019-04-20T09:22:40.221Z,98350.84
2019-04-20T09:23:36.785Z,98359.14
2019-04-20T09:24:34.651Z,98352.14
2019-04-20T09:25:42.835Z,98353.17
2019-04-20T09:26:29.399Z,98353.97
2019-04-20T09:27:04.727Z,98354.22
2019-04-20T09:27:45.907Z,98354.80
2019-04-20T09:28:59.240Z,98353.19
2019-04-20T09:29:43.782Z,98349.85
2019-04-20T09:30:37.289Z,98357.02
2019-04-20T09:31:36.891Z,98353.08
2019-04-20T09:32:28.700Z,98356.66
2019-04-20T09:33:41.991Z,98344.73
2019-04-20T09:34:42.372Z,98354.09
2019-04-20T09:35:33.246Z,98347.94
2019-04-20T09:36:18.498Z,98348.41
2019-04-20T09:37:44.637Z,98341.20
2019-04-20T09:38:30.021Z,98347.31
2019-04-20T09:40:04.319Z,98350.98
2019-04-20T09:40:54.265Z,98349.93
2019-04-20T09:41:58.474Z,98348.53
2019-04-20T09:42:36.846Z,98344.47
2019-04-20T09:43:38.984Z,98345.02
2019-04-20T09:44:31.496Z,98339.25
2019-04-20T09:45:33.029Z,98340.59
2019-04-20T09:46:15.711Z,98340.72
2019-04-20T09:47:07.338Z,98342.62
2019-04-20T09:47:58.145Z,98339.59
2019-04-20T09:48:55.604Z,98343.08
2019-04-20T09:49:49.804Z,98341.40
2019-04-20T09:50:47.585Z,98349.27
2019-04-20T09:51:42.384Z,98341.61
2019-04-20T09:52:27.849Z,98339.49
2019-04-20T09:53:19.743Z,98334.25
2019-04-20T09:54:04.032Z,98343.48
2019-04-20T09:54:59.297Z,98334.08
2019-04-20T09:55:53.616Z,98336.16
2019-04-20T09:56:39.520Z,98336.83
2019-04-20T09:57:38.057Z,98335.29
2019-04-20T09:58:21.342Z,98335.98
2019-04-20T09:59:26.896Z,98332.48
2019-04-20T10:00:11.795Z,98330.97
2019-04-20T10:01:03.344Z,98326.53
2019-04-20T10:01:43.694Z,98334.38
2019-04-20T10:02:32.487Z,98332.48
2019-04-20T10:03:18.825Z,98330.14
2019-04-20T10:04:11.042Z,98333.03
2019-04-20T10:05:02.031Z,98328.73
2019-04-20T10:05:53.769Z,98325.81
2019-04-20T10:06:43.619Z,98325.69
2019-04-20T10:07:37.282Z,98324.14
2019-04-20T10:08:27.535Z,98329.59
2019-04-20T10:09:20.422Z,98322.86
2019-04-20T10:10:22.697Z,98324.91
2019-04-20T10:10:59.499Z,98324.18
2019-04-20T10:11:51.605Z,98321.86
2019-04-20T10:12:43.937Z,98322.09
2019-04-20T10:13:34.360Z,98325.52
2019-04-20T10:14:24.923Z,98318.06
2019-04-20T10:15:21.363Z,98327.88
2019-04-20T10:16:08.329Z,98324.97
2019-04-20T10:17:00.074Z,98331.77
2019-04-20T10:17:49.974Z,98321.75
2019-04-20T10:18:45.499Z,98328.78
2019-04-20T10:19:34.646Z,98320.73
2019-04-20T10:20:28.228Z,98325.21
2019-04-20T10:21:13.755Z,98321.20
2019-04-20T10:22:04.548Z,98311.18
2019-04-20T10:22:54.426Z,98314.39
2019-04-20T10:23:45.598Z,98320.84
2019-04-20T10:24:36.964Z,98320.42
2019-04-20T10:25:28.674Z,98319.20
2019-04-20T10:26:18.957Z,98308.93
2019-04-20T10:27:12.597Z,98312.59
2019-04-20T10:28:03.358Z,98313.47
2019-04-20T10:28:52.879Z,98316.34
2019-04-20T10:29:44.109Z,98311.65
2019-04-20T10:30:34.913Z,98312.06
2019-04-20T10:31:26.464Z,98311.94
2019-04-20T10:32:17.888Z,98302.02
2019-04-20T10:33:07.886Z,98308.47
2019-04-20T10:33:59.762Z,98303.77
2019-04-20T10:34:50.697Z,98307.81
2019-04-20T10:35:41.655Z,98306.48
2019-04-20T10:37:01.708Z,98302.36
2019-04-20T10:38:01.029Z,98310.00
2019-04-20T10:38:54.760Z,98302.64
2019-04-20T10:39:44.702Z,98296.34
2019-04-20T10:40:47.334Z,98300.53
2019-04-20T10:41:36.014Z,98298.16